Terminal Aerodrome Forecast
Issued by NWS

Home | Current Version | Previous Version | Text Only | Print | Product List | Glossary On
Versions: 1 2 3 4 5 6 7 8 9 10 11 12 13 14 15 16 17
000
FTUS41 KALY 030544
TAFPSF
TAF
KPSF 030544Z 0306/0406 18010KT P6SM BKN250
     FM031500 19010G20KT P6SM SCT050 SCT250
     FM031900 19012G22KT P6SM SCT050 SCT100 BKN250
     FM032300 20012G22KT P6SM SCT025 BKN050 PROB30 0323/0403 3SM
      -TSRA BR BKN025CB OVC050
     FM040300 18007KT 5SM BR BKN050 BKN100=

USA.gov is the U.S. government's official web portal to all federal, state and local government web resources and services.